sensor_id;sensor_type;location;lat;lon;timestamp;P1;durP1;ratioP1;P2;durP2;ratioP2
56083;SDS011;41958;52.416;13.428;2022-10-31T00:02:13;18.27;;;11.63;;
56083;SDS011;41958;52.416;13.428;2022-10-31T00:04:39;19.25;;;11.85;;
56083;SDS011;41958;52.416;13.428;2022-10-31T00:07:04;18.25;;;11.30;;
56083;SDS011;41958;52.416;13.428;2022-10-31T00:09:29;17.95;;;11.73;;
56083;SDS011;41958;52.416;13.428;2022-10-31T00:11:54;20.63;;;12.30;;
56083;SDS011;41958;52.416;13.428;2022-10-31T00:14:20;18.98;;;10.95;;
56083;SDS011;41958;52.416;13.428;2022-10-31T00:16:45;20.50;;;11.73;;
56083;SDS011;41958;52.416;13.428;2022-10-31T00:19:10;24.73;;;12.25;;
56083;SDS011;41958;52.416;13.428;2022-10-31T00:21:35;21.17;;;11.63;;
56083;SDS011;41958;52.416;13.428;2022-10-31T00:24:01;20.83;;;11.40;;
56083;SDS011;41958;52.416;13.428;2022-10-31T00:26:27;19.73;;;11.80;;
56083;SDS011;41958;52.416;13.428;2022-10-31T00:28:53;21.10;;;12.10;;
56083;SDS011;41958;52.416;13.428;2022-10-31T00:31:18;20.35;;;12.50;;
56083;SDS011;41958;52.416;13.428;2022-10-31T00:33:44;18.60;;;11.38;;
56083;SDS011;41958;52.416;13.428;2022-10-31T00:36:13;18.48;;;11.40;;
56083;SDS011;41958;52.416;13.428;2022-10-31T00:38:40;17.20;;;11.57;;
56083;SDS011;41958;52.416;13.428;2022-10-31T00:41:06;18.25;;;11.80;;
56083;SDS011;41958;52.416;13.428;2022-10-31T00:43:31;18.13;;;10.50;;
56083;SDS011;41958;52.416;13.428;2022-10-31T00:45:57;17.20;;;10.63;;
56083;SDS011;41958;52.416;13.428;2022-10-31T00:48:22;14.35;;;9.88;;
56083;SDS011;41958;52.416;13.428;2022-10-31T00:50:47;20.63;;;9.88;;
56083;SDS011;41958;52.416;13.428;2022-10-31T00:53:13;18.88;;;10.48;;
56083;SDS011;41958;52.416;13.428;2022-10-31T00:55:38;12.68;;;9.00;;
56083;SDS011;41958;52.416;13.428;2022-10-31T00:58:03;20.35;;;10.40;;
56083;SDS011;41958;52.416;13.428;2022-10-31T01:00:28;14.02;;;9.98;;
56083;SDS011;41958;52.416;13.428;2022-10-31T01:02:54;15.05;;;9.48;;
56083;SDS011;41958;52.416;13.428;2022-10-31T01:05:19;14.93;;;9.95;;
56083;SDS011;41958;52.416;13.428;2022-10-31T01:07:44;15.88;;;10.00;;
56083;SDS011;41958;52.416;13.428;2022-10-31T01:10:10;15.98;;;9.93;;
56083;SDS011;41958;52.416;13.428;2022-10-31T01:12:36;14.05;;;9.80;;
56083;SDS011;41958;52.416;13.428;2022-10-31T01:15:03;13.60;;;9.88;;
56083;SDS011;41958;52.416;13.428;2022-10-31T01:17:29;15.13;;;9.85;;
56083;SDS011;41958;52.416;13.428;2022-10-31T01:19:54;18.60;;;10.65;;
56083;SDS011;41958;52.416;13.428;2022-10-31T01:22:19;15.10;;;10.88;;
56083;SDS011;41958;52.416;13.428;2022-10-31T01:24:44;17.63;;;12.02;;
56083;SDS011;41958;52.416;13.428;2022-10-31T01:27:10;17.13;;;11.18;;
56083;SDS011;41958;52.416;13.428;2022-10-31T01:29:35;18.20;;;11.63;;
56083;SDS011;41958;52.416;13.428;2022-10-31T01:32:00;20.00;;;11.65;;
56083;SDS011;41958;52.416;13.428;2022-10-31T01:34:25;18.13;;;11.88;;
56083;SDS011;41958;52.416;13.428;2022-10-31T01:36:51;17.83;;;12.38;;
56083;SDS011;41958;52.416;13.428;2022-10-31T01:39:16;19.65;;;11.93;;
56083;SDS011;41958;52.416;13.428;2022-10-31T01:41:46;22.10;;;12.13;;
56083;SDS011;41958;52.416;13.428;2022-10-31T01:46:40;18.80;;;12.90;;
56083;SDS011;41958;52.416;13.428;2022-10-31T01:49:12;22.60;;;14.00;;
56083;SDS011;41958;52.416;13.428;2022-10-31T01:51:58;21.83;;;14.15;;
56083;SDS011;41958;52.416;13.428;2022-10-31T01:54:29;22.80;;;13.75;;
56083;SDS011;41958;52.416;13.428;2022-10-31T01:57:02;24.27;;;13.70;;
56083;SDS011;41958;52.416;13.428;2022-10-31T01:59:32;21.15;;;13.57;;
56083;SDS011;41958;52.416;13.428;2022-10-31T02:02:00;21.38;;;13.85;;
56083;SDS011;41958;52.416;13.428;2022-10-31T02:04:26;21.88;;;13.70;;
56083;SDS011;41958;52.416;13.428;2022-10-31T02:09:21;22.45;;;13.82;;
56083;SDS011;41958;52.416;13.428;2022-10-31T02:11:49;23.55;;;14.05;;
56083;SDS011;41958;52.416;13.428;2022-10-31T02:14:17;24.60;;;14.73;;
56083;SDS011;41958;52.416;13.428;2022-10-31T02:16:45;24.65;;;15.85;;
56083;SDS011;41958;52.416;13.428;2022-10-31T02:19:11;20.40;;;13.23;;
56083;SDS011;41958;52.416;13.428;2022-10-31T02:21:44;23.55;;;13.23;;
56083;SDS011;41958;52.416;13.428;2022-10-31T02:32:41;18.98;;;12.57;;
56083;SDS011;41958;52.416;13.428;2022-10-31T02:35:30;20.88;;;12.35;;
56083;SDS011;41958;52.416;13.428;2022-10-31T02:46:33;18.30;;;11.95;;
56083;SDS011;41958;52.416;13.428;2022-10-31T02:49:08;18.00;;;12.13;;
56083;SDS011;41958;52.416;13.428;2022-10-31T02:51:43;19.52;;;12.10;;
56083;SDS011;41958;52.416;13.428;2022-10-31T02:54:18;19.65;;;12.02;;
56083;SDS011;41958;52.416;13.428;2022-10-31T02:56:46;18.52;;;11.48;;
56083;SDS011;41958;52.416;13.428;2022-10-31T02:59:12;18.45;;;12.07;;
56083;SDS011;41958;52.416;13.428;2022-10-31T03:01:50;18.00;;;11.50;;
56083;SDS011;41958;52.416;13.428;2022-10-31T03:10:08;23.08;;;13.50;;
56083;SDS011;41958;52.416;13.428;2022-10-31T03:13:01;21.58;;;13.18;;
56083;SDS011;41958;52.416;13.428;2022-10-31T03:15:49;23.33;;;12.82;;
56083;SDS011;41958;52.416;13.428;2022-10-31T03:21:12;25.90;;;14.50;;
56083;SDS011;41958;52.416;13.428;2022-10-31T03:23:40;27.00;;;15.38;;
56083;SDS011;41958;52.416;13.428;2022-10-31T03:26:08;25.23;;;14.52;;
56083;SDS011;41958;52.416;13.428;2022-10-31T03:28:38;29.48;;;16.00;;
56083;SDS011;41958;52.416;13.428;2022-10-31T03:31:08;30.25;;;16.38;;
56083;SDS011;41958;52.416;13.428;2022-10-31T03:33:37;27.10;;;15.05;;
56083;SDS011;41958;52.416;13.428;2022-10-31T03:36:05;32.70;;;16.75;;
56083;SDS011;41958;52.416;13.428;2022-10-31T03:38:33;28.90;;;15.30;;
56083;SDS011;41958;52.416;13.428;2022-10-31T03:41:01;28.40;;;15.82;;
56083;SDS011;41958;52.416;13.428;2022-10-31T03:43:32;32.75;;;17.42;;
56083;SDS011;41958;52.416;13.428;2022-10-31T03:46:02;31.23;;;16.50;;
56083;SDS011;41958;52.416;13.428;2022-10-31T03:48:28;31.15;;;16.58;;
56083;SDS011;41958;52.416;13.428;2022-10-31T03:50:59;30.17;;;17.33;;
56083;SDS011;41958;52.416;13.428;2022-10-31T03:53:32;39.67;;;18.23;;
56083;SDS011;41958;52.416;13.428;2022-10-31T03:56:02;28.23;;;16.38;;
56083;SDS011;41958;52.416;13.428;2022-10-31T03:58:36;25.45;;;15.30;;
56083;SDS011;41958;52.416;13.428;2022-10-31T04:01:08;26.23;;;15.38;;
56083;SDS011;41958;52.416;13.428;2022-10-31T04:03:40;31.23;;;16.63;;
56083;SDS011;41958;52.416;13.428;2022-10-31T04:06:07;24.67;;;15.30;;
56083;SDS011;41958;52.416;13.428;2022-10-31T04:08:40;25.23;;;14.75;;
56083;SDS011;41958;52.416;13.428;2022-10-31T04:11:09;24.95;;;14.45;;
56083;SDS011;41958;52.416;13.428;2022-10-31T04:13:37;25.73;;;14.82;;
56083;SDS011;41958;52.416;13.428;2022-10-31T04:16:05;21.35;;;13.73;;
56083;SDS011;41958;52.416;13.428;2022-10-31T04:18:31;24.38;;;14.40;;
56083;SDS011;41958;52.416;13.428;2022-10-31T04:21:00;26.80;;;15.40;;
56083;SDS011;41958;52.416;13.428;2022-10-31T04:23:27;22.52;;;14.48;;
56083;SDS011;41958;52.416;13.428;2022-10-31T04:25:53;27.90;;;15.07;;
56083;SDS011;41958;52.416;13.428;2022-10-31T04:28:19;24.42;;;14.23;;
56083;SDS011;41958;52.416;13.428;2022-10-31T04:30:44;28.98;;;15.32;;
56083;SDS011;41958;52.416;13.428;2022-10-31T04:33:09;24.85;;;14.70;;
56083;SDS011;41958;52.416;13.428;2022-10-31T04:35:35;24.02;;;15.20;;
56083;SDS011;41958;52.416;13.428;2022-10-31T04:38:00;26.38;;;14.80;;
56083;SDS011;41958;52.416;13.428;2022-10-31T04:40:26;22.15;;;13.98;;
56083;SDS011;41958;52.416;13.428;2022-10-31T04:42:51;27.60;;;14.73;;
56083;SDS011;41958;52.416;13.428;2022-10-31T04:45:16;24.10;;;13.90;;
56083;SDS011;41958;52.416;13.428;2022-10-31T04:47:41;26.75;;;14.57;;
56083;SDS011;41958;52.416;13.428;2022-10-31T04:50:07;20.85;;;13.98;;
56083;SDS011;41958;52.416;13.428;2022-10-31T04:52:38;21.40;;;13.80;;
56083;SDS011;41958;52.416;13.428;2022-10-31T04:55:04;26.25;;;14.40;;
56083;SDS011;41958;52.416;13.428;2022-10-31T04:57:29;26.80;;;13.75;;
56083;SDS011;41958;52.416;13.428;2022-10-31T04:59:54;26.63;;;13.65;;
56083;SDS011;41958;52.416;13.428;2022-10-31T05:02:20;23.35;;;14.20;;
56083;SDS011;41958;52.416;13.428;2022-10-31T05:04:45;20.58;;;12.60;;
56083;SDS011;41958;52.416;13.428;2022-10-31T05:07:10;21.20;;;12.95;;
56083;SDS011;41958;52.416;13.428;2022-10-31T05:09:35;21.77;;;12.25;;
56083;SDS011;41958;52.416;13.428;2022-10-31T05:12:01;22.10;;;12.85;;
56083;SDS011;41958;52.416;13.428;2022-10-31T05:14:26;21.60;;;12.88;;
56083;SDS011;41958;52.416;13.428;2022-10-31T05:16:51;21.00;;;12.70;;
56083;SDS011;41958;52.416;13.428;2022-10-31T05:19:16;19.60;;;12.75;;
56083;SDS011;41958;52.416;13.428;2022-10-31T05:21:42;20.88;;;12.88;;
56083;SDS011;41958;52.416;13.428;2022-10-31T05:24:07;24.33;;;13.38;;
56083;SDS011;41958;52.416;13.428;2022-10-31T05:26:32;23.02;;;13.10;;
56083;SDS011;41958;52.416;13.428;2022-10-31T05:28:57;20.73;;;13.30;;
56083;SDS011;41958;52.416;13.428;2022-10-31T05:31:23;20.95;;;12.38;;
56083;SDS011;41958;52.416;13.428;2022-10-31T05:33:48;17.90;;;12.38;;
56083;SDS011;41958;52.416;13.428;2022-10-31T05:36:13;19.65;;;12.20;;
56083;SDS011;41958;52.416;13.428;2022-10-31T05:38:38;20.05;;;12.40;;
56083;SDS011;41958;52.416;13.428;2022-10-31T05:41:04;19.35;;;12.50;;
56083;SDS011;41958;52.416;13.428;2022-10-31T05:43:29;21.02;;;12.95;;
56083;SDS011;41958;52.416;13.428;2022-10-31T05:45:55;20.73;;;12.88;;
56083;SDS011;41958;52.416;13.428;2022-10-31T05:48:21;21.48;;;13.23;;
56083;SDS011;41958;52.416;13.428;2022-10-31T05:50:47;23.85;;;13.02;;
56083;SDS011;41958;52.416;13.428;2022-10-31T05:53:13;18.50;;;12.20;;
56083;SDS011;41958;52.416;13.428;2022-10-31T05:55:38;21.98;;;13.15;;
56083;SDS011;41958;52.416;13.428;2022-10-31T05:58:05;22.88;;;12.35;;
56083;SDS011;41958;52.416;13.428;2022-10-31T06:00:30;21.33;;;12.77;;
56083;SDS011;41958;52.416;13.428;2022-10-31T06:02:57;19.48;;;12.65;;
56083;SDS011;41958;52.416;13.428;2022-10-31T06:05:27;24.73;;;12.82;;
56083;SDS011;41958;52.416;13.428;2022-10-31T06:07:52;21.92;;;13.23;;
56083;SDS011;41958;52.416;13.428;2022-10-31T06:10:18;18.17;;;12.20;;
56083;SDS011;41958;52.416;13.428;2022-10-31T06:12:45;18.42;;;11.82;;
56083;SDS011;41958;52.416;13.428;2022-10-31T06:15:11;23.42;;;12.82;;
56083;SDS011;41958;52.416;13.428;2022-10-31T06:17:36;15.85;;;11.63;;
56083;SDS011;41958;52.416;13.428;2022-10-31T06:20:01;18.67;;;12.15;;
56083;SDS011;41958;52.416;13.428;2022-10-31T06:22:28;19.50;;;12.38;;
56083;SDS011;41958;52.416;13.428;2022-10-31T06:24:54;19.33;;;11.63;;
56083;SDS011;41958;52.416;13.428;2022-10-31T06:27:19;22.20;;;12.45;;
56083;SDS011;41958;52.416;13.428;2022-10-31T06:29:44;20.52;;;13.02;;
56083;SDS011;41958;52.416;13.428;2022-10-31T06:32:12;17.58;;;12.40;;
56083;SDS011;41958;52.416;13.428;2022-10-31T06:34:39;21.55;;;12.85;;
56083;SDS011;41958;52.416;13.428;2022-10-31T06:37:05;25.25;;;13.05;;
56083;SDS011;41958;52.416;13.428;2022-10-31T06:39:31;20.98;;;12.80;;
56083;SDS011;41958;52.416;13.428;2022-10-31T06:41:57;22.42;;;12.85;;
56083;SDS011;41958;52.416;13.428;2022-10-31T06:44:22;20.80;;;13.48;;
56083;SDS011;41958;52.416;13.428;2022-10-31T06:46:48;24.27;;;13.45;;
56083;SDS011;41958;52.416;13.428;2022-10-31T06:49:14;25.75;;;13.07;;
56083;SDS011;41958;52.416;13.428;2022-10-31T06:51:39;23.15;;;13.15;;
56083;SDS011;41958;52.416;13.428;2022-10-31T06:54:04;24.48;;;13.90;;
56083;SDS011;41958;52.416;13.428;2022-10-31T06:56:30;26.65;;;14.27;;
56083;SDS011;41958;52.416;13.428;2022-10-31T06:58:55;26.05;;;15.55;;
56083;SDS011;41958;52.416;13.428;2022-10-31T07:01:20;25.63;;;15.02;;
56083;SDS011;41958;52.416;13.428;2022-10-31T07:03:45;32.65;;;17.10;;
56083;SDS011;41958;52.416;13.428;2022-10-31T07:06:11;34.45;;;19.13;;
56083;SDS011;41958;52.416;13.428;2022-10-31T07:08:36;43.47;;;18.23;;
56083;SDS011;41958;52.416;13.428;2022-10-31T07:11:01;34.60;;;17.92;;
56083;SDS011;41958;52.416;13.428;2022-10-31T07:13:26;35.20;;;16.98;;
56083;SDS011;41958;52.416;13.428;2022-10-31T07:15:52;31.20;;;17.13;;
56083;SDS011;41958;52.416;13.428;2022-10-31T07:18:19;27.98;;;16.50;;
56083;SDS011;41958;52.416;13.428;2022-10-31T07:20:45;30.00;;;15.88;;
56083;SDS011;41958;52.416;13.428;2022-10-31T07:23:10;26.30;;;15.23;;
56083;SDS011;41958;52.416;13.428;2022-10-31T07:25:36;31.83;;;16.67;;
56083;SDS011;41958;52.416;13.428;2022-10-31T07:28:02;34.00;;;16.88;;
56083;SDS011;41958;52.416;13.428;2022-10-31T07:30:27;28.63;;;16.98;;
56083;SDS011;41958;52.416;13.428;2022-10-31T07:32:53;37.38;;;19.38;;
56083;SDS011;41958;52.416;13.428;2022-10-31T07:35:22;35.38;;;17.95;;
56083;SDS011;41958;52.416;13.428;2022-10-31T07:37:48;37.22;;;20.10;;
56083;SDS011;41958;52.416;13.428;2022-10-31T07:40:14;34.85;;;19.65;;
56083;SDS011;41958;52.416;13.428;2022-10-31T07:42:40;33.63;;;19.38;;
56083;SDS011;41958;52.416;13.428;2022-10-31T07:45:08;40.75;;;19.40;;
56083;SDS011;41958;52.416;13.428;2022-10-31T07:47:41;32.17;;;18.30;;
56083;SDS011;41958;52.416;13.428;2022-10-31T07:50:08;32.38;;;17.75;;
56083;SDS011;41958;52.416;13.428;2022-10-31T07:52:34;31.88;;;17.23;;
56083;SDS011;41958;52.416;13.428;2022-10-31T07:55:00;33.50;;;17.63;;
56083;SDS011;41958;52.416;13.428;2022-10-31T07:57:26;30.17;;;17.73;;
56083;SDS011;41958;52.416;13.428;2022-10-31T07:59:51;28.40;;;17.17;;
56083;SDS011;41958;52.416;13.428;2022-10-31T08:02:16;26.85;;;17.38;;
56083;SDS011;41958;52.416;13.428;2022-10-31T08:04:42;27.23;;;16.60;;
56083;SDS011;41958;52.416;13.428;2022-10-31T08:07:07;29.70;;;15.85;;
56083;SDS011;41958;52.416;13.428;2022-10-31T08:09:32;26.95;;;15.75;;
56083;SDS011;41958;52.416;13.428;2022-10-31T08:11:58;25.33;;;16.33;;
56083;SDS011;41958;52.416;13.428;2022-10-31T08:14:23;26.25;;;15.45;;
56083;SDS011;41958;52.416;13.428;2022-10-31T08:16:48;25.13;;;14.38;;
56083;SDS011;41958;52.416;13.428;2022-10-31T08:19:13;27.05;;;15.57;;
56083;SDS011;41958;52.416;13.428;2022-10-31T08:21:39;29.58;;;15.50;;
56083;SDS011;41958;52.416;13.428;2022-10-31T08:24:04;36.15;;;16.60;;
56083;SDS011;41958;52.416;13.428;2022-10-31T08:26:30;32.38;;;15.70;;
56083;SDS011;41958;52.416;13.428;2022-10-31T08:28:55;26.23;;;16.10;;
56083;SDS011;41958;52.416;13.428;2022-10-31T08:31:21;28.08;;;16.67;;
56083;SDS011;41958;52.416;13.428;2022-10-31T08:33:46;28.80;;;15.35;;
56083;SDS011;41958;52.416;13.428;2022-10-31T08:36:11;28.58;;;16.10;;
56083;SDS011;41958;52.416;13.428;2022-10-31T08:38:37;26.63;;;15.23;;
56083;SDS011;41958;52.416;13.428;2022-10-31T08:41:02;26.92;;;16.73;;
56083;SDS011;41958;52.416;13.428;2022-10-31T08:43:27;28.95;;;16.58;;
56083;SDS011;41958;52.416;13.428;2022-10-31T08:45:52;25.48;;;15.73;;
56083;SDS011;41958;52.416;13.428;2022-10-31T08:48:19;32.17;;;17.05;;
56083;SDS011;41958;52.416;13.428;2022-10-31T08:50:45;26.15;;;16.13;;
56083;SDS011;41958;52.416;13.428;2022-10-31T08:53:12;27.38;;;16.88;;
56083;SDS011;41958;52.416;13.428;2022-10-31T08:55:41;30.40;;;17.40;;
56083;SDS011;41958;52.416;13.428;2022-10-31T08:58:18;28.95;;;16.70;;
56083;SDS011;41958;52.416;13.428;2022-10-31T09:00:44;31.83;;;17.95;;
56083;SDS011;41958;52.416;13.428;2022-10-31T09:03:12;27.90;;;16.60;;
56083;SDS011;41958;52.416;13.428;2022-10-31T09:05:39;34.20;;;17.88;;
56083;SDS011;41958;52.416;13.428;2022-10-31T09:08:05;27.67;;;17.80;;
56083;SDS011;41958;52.416;13.428;2022-10-31T09:10:31;33.58;;;19.05;;
56083;SDS011;41958;52.416;13.428;2022-10-31T09:15:26;31.88;;;18.30;;
56083;SDS011;41958;52.416;13.428;2022-10-31T09:17:53;34.38;;;18.75;;
56083;SDS011;41958;52.416;13.428;2022-10-31T09:20:18;33.03;;;18.40;;
56083;SDS011;41958;52.416;13.428;2022-10-31T09:22:44;36.75;;;18.88;;
56083;SDS011;41958;52.416;13.428;2022-10-31T09:25:09;36.88;;;19.25;;
56083;SDS011;41958;52.416;13.428;2022-10-31T09:27:35;38.08;;;19.05;;
56083;SDS011;41958;52.416;13.428;2022-10-31T09:30:00;36.83;;;19.80;;
56083;SDS011;41958;52.416;13.428;2022-10-31T09:32:26;33.90;;;18.48;;
56083;SDS011;41958;52.416;13.428;2022-10-31T09:34:51;31.38;;;18.58;;
56083;SDS011;41958;52.416;13.428;2022-10-31T09:37:16;38.63;;;18.38;;
56083;SDS011;41958;52.416;13.428;2022-10-31T09:39:41;32.05;;;18.58;;
56083;SDS011;41958;52.416;13.428;2022-10-31T09:42:29;29.05;;;19.20;;
56083;SDS011;41958;52.416;13.428;2022-10-31T09:45:21;36.55;;;18.85;;
56083;SDS011;41958;52.416;13.428;2022-10-31T09:47:52;36.05;;;19.85;;
56083;SDS011;41958;52.416;13.428;2022-10-31T09:56:09;32.17;;;18.38;;
56083;SDS011;41958;52.416;13.428;2022-10-31T09:58:41;30.35;;;17.92;;
56083;SDS011;41958;52.416;13.428;2022-10-31T10:01:16;36.88;;;18.65;;
56083;SDS011;41958;52.416;13.428;2022-10-31T10:03:53;31.05;;;18.30;;
56083;SDS011;41958;52.416;13.428;2022-10-31T10:06:27;36.53;;;18.45;;
56083;SDS011;41958;52.416;13.428;2022-10-31T10:08:55;30.65;;;18.98;;
56083;SDS011;41958;52.416;13.428;2022-10-31T10:11:28;30.85;;;19.92;;
56083;SDS011;41958;52.416;13.428;2022-10-31T10:14:31;34.85;;;19.27;;
56083;SDS011;41958;52.416;13.428;2022-10-31T10:17:20;34.42;;;20.60;;
56083;SDS011;41958;52.416;13.428;2022-10-31T10:25:24;34.08;;;20.85;;
56083;SDS011;41958;52.416;13.428;2022-10-31T10:27:56;39.08;;;20.20;;
56083;SDS011;41958;52.416;13.428;2022-10-31T10:30:39;37.72;;;20.02;;
56083;SDS011;41958;52.416;13.428;2022-10-31T10:33:12;37.60;;;20.98;;
56083;SDS011;41958;52.416;13.428;2022-10-31T10:35:49;34.10;;;18.67;;
56083;SDS011;41958;52.416;13.428;2022-10-31T10:41:26;31.60;;;19.23;;
56083;SDS011;41958;52.416;13.428;2022-10-31T10:43:55;37.30;;;20.48;;
56083;SDS011;41958;52.416;13.428;2022-10-31T10:46:39;39.42;;;19.75;;
56083;SDS011;41958;52.416;13.428;2022-10-31T10:49:45;41.33;;;21.08;;
56083;SDS011;41958;52.416;13.428;2022-10-31T10:55:32;33.30;;;19.13;;
56083;SDS011;41958;52.416;13.428;2022-10-31T10:58:12;35.78;;;20.77;;
56083;SDS011;41958;52.416;13.428;2022-10-31T11:00:38;38.95;;;21.27;;
56083;SDS011;41958;52.416;13.428;2022-10-31T11:03:06;37.28;;;20.40;;
56083;SDS011;41958;52.416;13.428;2022-10-31T11:05:39;35.63;;;21.10;;
56083;SDS011;41958;52.416;13.428;2022-10-31T11:08:10;32.35;;;18.60;;
56083;SDS011;41958;52.416;13.428;2022-10-31T11:10:35;37.58;;;20.63;;
56083;SDS011;41958;52.416;13.428;2022-10-31T11:15:37;34.55;;;18.77;;
56083;SDS011;41958;52.416;13.428;2022-10-31T11:18:19;33.13;;;19.23;;
56083;SDS011;41958;52.416;13.428;2022-10-31T11:20:51;40.42;;;21.15;;
56083;SDS011;41958;52.416;13.428;2022-10-31T11:23:19;35.30;;;20.45;;
56083;SDS011;41958;52.416;13.428;2022-10-31T11:25:50;33.38;;;19.70;;
56083;SDS011;41958;52.416;13.428;2022-10-31T11:28:23;37.47;;;21.17;;
56083;SDS011;41958;52.416;13.428;2022-10-31T11:30:52;35.08;;;21.08;;
56083;SDS011;41958;52.416;13.428;2022-10-31T11:33:28;42.53;;;22.40;;
56083;SDS011;41958;52.416;13.428;2022-10-31T11:35:56;37.35;;;21.33;;
56083;SDS011;41958;52.416;13.428;2022-10-31T11:38:23;35.28;;;21.88;;
56083;SDS011;41958;52.416;13.428;2022-10-31T11:41:09;36.15;;;21.08;;
56083;SDS011;41958;52.416;13.428;2022-10-31T11:43:38;38.55;;;21.65;;
56083;SDS011;41958;52.416;13.428;2022-10-31T11:46:15;36.05;;;20.80;;
56083;SDS011;41958;52.416;13.428;2022-10-31T11:48:50;39.38;;;22.52;;
56083;SDS011;41958;52.416;13.428;2022-10-31T11:51:21;38.47;;;20.70;;
56083;SDS011;41958;52.416;13.428;2022-10-31T11:53:51;34.92;;;20.58;;
56083;SDS011;41958;52.416;13.428;2022-10-31T11:56:17;36.75;;;20.77;;
56083;SDS011;41958;52.416;13.428;2022-10-31T11:58:43;38.95;;;20.65;;
56083;SDS011;41958;52.416;13.428;2022-10-31T12:01:24;26.45;;;17.77;;
56083;SDS011;41958;52.416;13.428;2022-10-31T12:06:21;34.45;;;20.42;;
56083;SDS011;41958;52.416;13.428;2022-10-31T12:08:50;42.25;;;19.67;;
56083;SDS011;41958;52.416;13.428;2022-10-31T12:11:33;41.20;;;19.98;;
56083;SDS011;41958;52.416;13.428;2022-10-31T12:14:17;31.17;;;19.13;;
56083;SDS011;41958;52.416;13.428;2022-10-31T12:19:53;35.55;;;19.08;;
56083;SDS011;41958;52.416;13.428;2022-10-31T12:22:41;39.85;;;18.95;;
56083;SDS011;41958;52.416;13.428;2022-10-31T12:25:26;35.35;;;19.52;;
56083;SDS011;41958;52.416;13.428;2022-10-31T12:28:16;32.13;;;18.42;;
56083;SDS011;41958;52.416;13.428;2022-10-31T12:31:20;31.55;;;19.13;;
56083;SDS011;41958;52.416;13.428;2022-10-31T12:34:15;38.63;;;19.50;;
56083;SDS011;41958;52.416;13.428;2022-10-31T12:36:45;32.40;;;17.40;;
56083;SDS011;41958;52.416;13.428;2022-10-31T12:39:53;36.08;;;18.77;;
56083;SDS011;41958;52.416;13.428;2022-10-31T12:42:43;36.00;;;19.63;;
56083;SDS011;41958;52.416;13.428;2022-10-31T12:48:42;32.67;;;19.60;;
56083;SDS011;41958;52.416;13.428;2022-10-31T12:51:24;35.03;;;20.25;;
56083;SDS011;41958;52.416;13.428;2022-10-31T12:54:25;33.35;;;18.20;;
56083;SDS011;41958;52.416;13.428;2022-10-31T12:57:09;34.17;;;17.98;;
56083;SDS011;41958;52.416;13.428;2022-10-31T12:59:42;31.70;;;18.65;;
56083;SDS011;41958;52.416;13.428;2022-10-31T13:02:18;33.95;;;19.30;;
56083;SDS011;41958;52.416;13.428;2022-10-31T13:04:54;36.30;;;19.38;;
56083;SDS011;41958;52.416;13.428;2022-10-31T13:07:43;35.20;;;19.92;;
56083;SDS011;41958;52.416;13.428;2022-10-31T13:12:37;38.80;;;21.23;;
56083;SDS011;41958;52.416;13.428;2022-10-31T13:15:12;31.50;;;17.92;;
56083;SDS011;41958;52.416;13.428;2022-10-31T13:17:47;35.78;;;18.38;;
56083;SDS011;41958;52.416;13.428;2022-10-31T13:22:56;34.75;;;18.45;;
56083;SDS011;41958;52.416;13.428;2022-10-31T13:25:28;28.52;;;17.08;;
56083;SDS011;41958;52.416;13.428;2022-10-31T13:27:59;30.80;;;17.45;;
56083;SDS011;41958;52.416;13.428;2022-10-31T13:30:28;29.45;;;16.80;;
56083;SDS011;41958;52.416;13.428;2022-10-31T13:33:17;34.08;;;19.23;;
56083;SDS011;41958;52.416;13.428;2022-10-31T13:39:03;34.42;;;18.92;;
56083;SDS011;41958;52.416;13.428;2022-10-31T13:45:16;32.75;;;19.00;;
56083;SDS011;41958;52.416;13.428;2022-10-31T13:50:39;34.70;;;19.75;;
56083;SDS011;41958;52.416;13.428;2022-10-31T13:53:13;34.42;;;17.95;;
56083;SDS011;41958;52.416;13.428;2022-10-31T13:55:43;32.88;;;16.63;;
56083;SDS011;41958;52.416;13.428;2022-10-31T14:00:46;30.67;;;18.27;;
56083;SDS011;41958;52.416;13.428;2022-10-31T14:03:22;41.08;;;20.13;;
56083;SDS011;41958;52.416;13.428;2022-10-31T14:05:53;38.90;;;19.45;;
56083;SDS011;41958;52.416;13.428;2022-10-31T14:08:20;33.63;;;19.13;;
56083;SDS011;41958;52.416;13.428;2022-10-31T14:10:48;30.20;;;18.67;;
56083;SDS011;41958;52.416;13.428;2022-10-31T14:13:35;29.88;;;18.10;;
56083;SDS011;41958;52.416;13.428;2022-10-31T14:16:06;27.48;;;17.63;;
56083;SDS011;41958;52.416;13.428;2022-10-31T14:18:42;31.13;;;18.42;;
56083;SDS011;41958;52.416;13.428;2022-10-31T14:23:47;35.00;;;18.98;;
56083;SDS011;41958;52.416;13.428;2022-10-31T14:26:31;28.50;;;18.30;;
56083;SDS011;41958;52.416;13.428;2022-10-31T14:28:59;28.40;;;18.08;;
56083;SDS011;41958;52.416;13.428;2022-10-31T14:34:28;30.75;;;18.30;;
56083;SDS011;41958;52.416;13.428;2022-10-31T14:37:08;29.27;;;17.77;;
56083;SDS011;41958;52.416;13.428;2022-10-31T14:39:56;35.53;;;17.75;;
56083;SDS011;41958;52.416;13.428;2022-10-31T14:47:54;30.77;;;18.40;;
56083;SDS011;41958;52.416;13.428;2022-10-31T14:53:23;29.00;;;17.67;;
56083;SDS011;41958;52.416;13.428;2022-10-31T14:55:54;30.90;;;18.40;;
56083;SDS011;41958;52.416;13.428;2022-10-31T14:58:22;31.27;;;17.58;;
56083;SDS011;41958;52.416;13.428;2022-10-31T15:00:53;29.20;;;17.95;;
56083;SDS011;41958;52.416;13.428;2022-10-31T15:03:27;34.78;;;19.52;;
56083;SDS011;41958;52.416;13.428;2022-10-31T15:06:02;34.58;;;20.65;;
56083;SDS011;41958;52.416;13.428;2022-10-31T15:08:38;30.08;;;19.45;;
56083;SDS011;41958;52.416;13.428;2022-10-31T15:11:09;34.22;;;18.52;;
56083;SDS011;41958;52.416;13.428;2022-10-31T15:13:40;34.72;;;18.92;;
56083;SDS011;41958;52.416;13.428;2022-10-31T15:16:07;35.13;;;20.05;;
56083;SDS011;41958;52.416;13.428;2022-10-31T15:18:35;32.22;;;19.88;;
56083;SDS011;41958;52.416;13.428;2022-10-31T15:21:09;35.60;;;19.25;;
56083;SDS011;41958;52.416;13.428;2022-10-31T15:23:35;30.40;;;19.25;;
56083;SDS011;41958;52.416;13.428;2022-10-31T15:26:00;34.40;;;19.50;;
56083;SDS011;41958;52.416;13.428;2022-10-31T15:28:28;33.35;;;19.63;;
56083;SDS011;41958;52.416;13.428;2022-10-31T15:30:57;33.55;;;18.48;;
56083;SDS011;41958;52.416;13.428;2022-10-31T15:33:25;33.80;;;19.80;;
56083;SDS011;41958;52.416;13.428;2022-10-31T15:35:56;34.92;;;21.10;;
56083;SDS011;41958;52.416;13.428;2022-10-31T15:38:23;35.13;;;20.88;;
56083;SDS011;41958;52.416;13.428;2022-10-31T15:41:02;34.58;;;19.98;;
56083;SDS011;41958;52.416;13.428;2022-10-31T15:43:32;39.60;;;22.38;;
56083;SDS011;41958;52.416;13.428;2022-10-31T15:46:01;42.63;;;22.85;;
56083;SDS011;41958;52.416;13.428;2022-10-31T15:48:28;45.20;;;24.48;;
56083;SDS011;41958;52.416;13.428;2022-10-31T15:50:56;43.50;;;22.70;;
56083;SDS011;41958;52.416;13.428;2022-10-31T15:56:01;48.10;;;26.83;;
56083;SDS011;41958;52.416;13.428;2022-10-31T15:58:29;54.25;;;28.50;;
56083;SDS011;41958;52.416;13.428;2022-10-31T16:01:04;60.50;;;30.83;;